Newburgh Heights, Ohio
Current Conditions -  °F | °C
As of 2:53 AM on Monday 24 Nov 2014 (Local Time) from KBKL Reporting Station
Overcast Overcast  
Wind Chill: 59°   Ceiling: 5000
Heat Index: 59°   Visibility: 10mi
Dew Point: 52°   Wind: 18mph
Humidity: 78%   Direction: 170°S
Pressure: 29.21"   Gusts: 35mph
Location:  41.4719°N, 81.6502°W
Report Text: KBKL 240753Z AUTO 17016G30KT 10SM FEW028 BKN050 OVC095 15/11 A2921 RMK AO2 PK WND 15030/0750 SLP890 T01500111
Loading
Personal Weather Stations






























Interactive Weather Map New forecast layout! Learn more

10-Day Weather Forecast

Advertisements
Track Severe Weather on mobile